sensor_id;sensor_type;location;lat;lon;timestamp;P1;durP1;ratioP1;P2;durP2;ratioP2
69953;SDS011;57276;51.364;12.376;2023-05-10T00:03:39;6.05;;;3.70;;
69953;SDS011;57276;51.364;12.376;2023-05-10T00:09:41;6.95;;;3.55;;
69953;SDS011;57276;51.364;12.376;2023-05-10T00:15:43;6.87;;;3.50;;
69953;SDS011;57276;51.364;12.376;2023-05-10T00:21:44;10.00;;;5.25;;
69953;SDS011;57276;51.364;12.376;2023-05-10T00:27:47;6.33;;;3.40;;
69953;SDS011;57276;51.364;12.376;2023-05-10T00:33:49;6.78;;;3.45;;
69953;SDS011;57276;51.364;12.376;2023-05-10T00:39:50;6.35;;;3.58;;
69953;SDS011;57276;51.364;12.376;2023-05-10T00:45:53;7.03;;;3.43;;
69953;SDS011;57276;51.364;12.376;2023-05-10T00:51:54;6.50;;;3.60;;
69953;SDS011;57276;51.364;12.376;2023-05-10T00:57:56;9.53;;;3.70;;
69953;SDS011;57276;51.364;12.376;2023-05-10T01:03:58;6.85;;;3.42;;
69953;SDS011;57276;51.364;12.376;2023-05-10T01:10:00;6.38;;;3.83;;
69953;SDS011;57276;51.364;12.376;2023-05-10T01:16:02;6.17;;;3.43;;
69953;SDS011;57276;51.364;12.376;2023-05-10T01:22:08;6.65;;;3.28;;
69953;SDS011;57276;51.364;12.376;2023-05-10T01:28:17;8.60;;;4.43;;
69953;SDS011;57276;51.364;12.376;2023-05-10T01:34:25;6.07;;;3.60;;
69953;SDS011;57276;51.364;12.376;2023-05-10T01:40:47;7.28;;;3.60;;
69953;SDS011;57276;51.364;12.376;2023-05-10T01:46:52;5.63;;;3.33;;
69953;SDS011;57276;51.364;12.376;2023-05-10T01:52:56;5.60;;;3.63;;
69953;SDS011;57276;51.364;12.376;2023-05-10T01:58:58;6.03;;;3.20;;
69953;SDS011;57276;51.364;12.376;2023-05-10T02:05:06;6.95;;;3.40;;
69953;SDS011;57276;51.364;12.376;2023-05-10T02:11:08;5.55;;;3.05;;
69953;SDS011;57276;51.364;12.376;2023-05-10T02:17:10;8.47;;;3.57;;
69953;SDS011;57276;51.364;12.376;2023-05-10T02:23:13;6.18;;;3.47;;
69953;SDS011;57276;51.364;12.376;2023-05-10T02:29:17;6.50;;;3.50;;
69953;SDS011;57276;51.364;12.376;2023-05-10T02:35:21;6.78;;;3.45;;
69953;SDS011;57276;51.364;12.376;2023-05-10T02:41:23;6.35;;;3.25;;
69953;SDS011;57276;51.364;12.376;2023-05-10T02:47:26;6.67;;;3.30;;
69953;SDS011;57276;51.364;12.376;2023-05-10T02:53:30;6.13;;;3.40;;
69953;SDS011;57276;51.364;12.376;2023-05-10T02:59:32;7.27;;;3.60;;
69953;SDS011;57276;51.364;12.376;2023-05-10T03:05:33;6.85;;;3.50;;
69953;SDS011;57276;51.364;12.376;2023-05-10T03:11:48;6.07;;;3.30;;
69953;SDS011;57276;51.364;12.376;2023-05-10T03:17:55;6.27;;;3.27;;
69953;SDS011;57276;51.364;12.376;2023-05-10T03:24:07;6.38;;;3.38;;
69953;SDS011;57276;51.364;12.376;2023-05-10T03:30:11;8.97;;;3.40;;
69953;SDS011;57276;51.364;12.376;2023-05-10T03:36:13;7.32;;;3.50;;
69953;SDS011;57276;51.364;12.376;2023-05-10T03:42:16;6.32;;;3.55;;
69953;SDS011;57276;51.364;12.376;2023-05-10T03:48:19;7.20;;;3.57;;
69953;SDS011;57276;51.364;12.376;2023-05-10T03:54:21;8.27;;;3.83;;
69953;SDS011;57276;51.364;12.376;2023-05-10T04:00:24;6.30;;;3.30;;
69953;SDS011;57276;51.364;12.376;2023-05-10T04:06:28;6.75;;;3.38;;
69953;SDS011;57276;51.364;12.376;2023-05-10T04:12:30;7.30;;;3.35;;
69953;SDS011;57276;51.364;12.376;2023-05-10T04:18:31;6.67;;;3.10;;
69953;SDS011;57276;51.364;12.376;2023-05-10T04:24:33;6.80;;;3.65;;
69953;SDS011;57276;51.364;12.376;2023-05-10T04:30:35;6.43;;;3.40;;
69953;SDS011;57276;51.364;12.376;2023-05-10T04:36:36;8.55;;;4.63;;
69953;SDS011;57276;51.364;12.376;2023-05-10T04:42:39;7.88;;;4.05;;
69953;SDS011;57276;51.364;12.376;2023-05-10T04:48:40;10.73;;;3.90;;
69953;SDS011;57276;51.364;12.376;2023-05-10T04:54:42;7.60;;;3.47;;
69953;SDS011;57276;51.364;12.376;2023-05-10T05:00:43;6.53;;;3.60;;
69953;SDS011;57276;51.364;12.376;2023-05-10T05:06:45;6.60;;;3.53;;
69953;SDS011;57276;51.364;12.376;2023-05-10T05:12:47;9.82;;;3.55;;
69953;SDS011;57276;51.364;12.376;2023-05-10T05:18:49;8.77;;;3.27;;
69953;SDS011;57276;51.364;12.376;2023-05-10T05:24:50;6.03;;;3.30;;
69953;SDS011;57276;51.364;12.376;2023-05-10T05:30:53;6.00;;;3.37;;
69953;SDS011;57276;51.364;12.376;2023-05-10T05:36:55;6.97;;;3.70;;
69953;SDS011;57276;51.364;12.376;2023-05-10T05:42:57;7.15;;;3.53;;
69953;SDS011;57276;51.364;12.376;2023-05-10T05:49:00;7.50;;;3.60;;
69953;SDS011;57276;51.364;12.376;2023-05-10T05:55:02;7.68;;;3.50;;
69953;SDS011;57276;51.364;12.376;2023-05-10T06:01:05;8.80;;;3.60;;
69953;SDS011;57276;51.364;12.376;2023-05-10T06:07:06;6.63;;;2.92;;
69953;SDS011;57276;51.364;12.376;2023-05-10T06:13:08;6.95;;;3.08;;
69953;SDS011;57276;51.364;12.376;2023-05-10T06:19:09;8.40;;;3.50;;
69953;SDS011;57276;51.364;12.376;2023-05-10T06:25:12;7.35;;;3.55;;
69953;SDS011;57276;51.364;12.376;2023-05-10T06:31:13;6.53;;;3.40;;
69953;SDS011;57276;51.364;12.376;2023-05-10T06:37:15;7.28;;;3.42;;
69953;SDS011;57276;51.364;12.376;2023-05-10T06:43:17;9.93;;;3.42;;
69953;SDS011;57276;51.364;12.376;2023-05-10T06:49:19;5.80;;;3.40;;
69953;SDS011;57276;51.364;12.376;2023-05-10T06:55:20;7.95;;;3.67;;
69953;SDS011;57276;51.364;12.376;2023-05-10T07:01:23;6.47;;;3.30;;
69953;SDS011;57276;51.364;12.376;2023-05-10T07:07:24;8.32;;;3.55;;
69953;SDS011;57276;51.364;12.376;2023-05-10T07:13:26;8.85;;;3.42;;
69953;SDS011;57276;51.364;12.376;2023-05-10T07:19:28;7.47;;;3.57;;
69953;SDS011;57276;51.364;12.376;2023-05-10T07:25:30;6.18;;;3.25;;
69953;SDS011;57276;51.364;12.376;2023-05-10T07:31:32;9.10;;;3.20;;
69953;SDS011;57276;51.364;12.376;2023-05-10T07:37:36;6.72;;;3.40;;
69953;SDS011;57276;51.364;12.376;2023-05-10T07:43:37;5.95;;;3.10;;
69953;SDS011;57276;51.364;12.376;2023-05-10T07:49:39;10.40;;;3.60;;
69953;SDS011;57276;51.364;12.376;2023-05-10T07:55:40;5.35;;;3.42;;
69953;SDS011;57276;51.364;12.376;2023-05-10T08:01:42;5.53;;;3.20;;
69953;SDS011;57276;51.364;12.376;2023-05-10T08:07:43;8.35;;;3.80;;
69953;SDS011;57276;51.364;12.376;2023-05-10T08:13:45;9.93;;;3.40;;
69953;SDS011;57276;51.364;12.376;2023-05-10T08:19:46;5.10;;;3.40;;
69953;SDS011;57276;51.364;12.376;2023-05-10T08:25:48;6.93;;;3.70;;
69953;SDS011;57276;51.364;12.376;2023-05-10T08:31:50;5.53;;;3.70;;
69953;SDS011;57276;51.364;12.376;2023-05-10T08:37:52;7.45;;;3.65;;
69953;SDS011;57276;51.364;12.376;2023-05-10T08:43:53;6.97;;;3.50;;
69953;SDS011;57276;51.364;12.376;2023-05-10T08:49:56;5.43;;;3.40;;
69953;SDS011;57276;51.364;12.376;2023-05-10T08:56:00;6.18;;;3.55;;
69953;SDS011;57276;51.364;12.376;2023-05-10T09:02:02;6.53;;;3.70;;
69953;SDS011;57276;51.364;12.376;2023-05-10T09:08:05;10.23;;;4.15;;
69953;SDS011;57276;51.364;12.376;2023-05-10T09:14:07;5.50;;;3.80;;
69953;SDS011;57276;51.364;12.376;2023-05-10T09:20:12;7.60;;;4.27;;
69953;SDS011;57276;51.364;12.376;2023-05-10T09:26:13;6.13;;;3.90;;
69953;SDS011;57276;51.364;12.376;2023-05-10T09:32:15;9.30;;;4.70;;
69953;SDS011;57276;51.364;12.376;2023-05-10T09:38:19;9.65;;;4.82;;
69953;SDS011;57276;51.364;12.376;2023-05-10T09:44:21;8.02;;;5.10;;
69953;SDS011;57276;51.364;12.376;2023-05-10T09:50:22;8.90;;;5.13;;
69953;SDS011;57276;51.364;12.376;2023-05-10T09:56:35;7.68;;;5.13;;
69953;SDS011;57276;51.364;12.376;2023-05-10T10:02:40;9.17;;;5.50;;
69953;SDS011;57276;51.364;12.376;2023-05-10T10:08:42;7.43;;;4.82;;
69953;SDS011;57276;51.364;12.376;2023-05-10T10:14:45;9.93;;;5.85;;
69953;SDS011;57276;51.364;12.376;2023-05-10T10:20:48;8.57;;;5.20;;
69953;SDS011;57276;51.364;12.376;2023-05-10T10:26:50;11.18;;;5.70;;
69953;SDS011;57276;51.364;12.376;2023-05-10T10:39:20;10.52;;;5.70;;
69953;SDS011;57276;51.364;12.376;2023-05-10T10:45:23;9.57;;;5.82;;
69953;SDS011;57276;51.364;12.376;2023-05-10T10:51:28;12.13;;;5.70;;
69953;SDS011;57276;51.364;12.376;2023-05-10T10:57:34;8.82;;;5.30;;
69953;SDS011;57276;51.364;12.376;2023-05-10T11:10:03;8.90;;;5.70;;
69953;SDS011;57276;51.364;12.376;2023-05-10T11:22:22;9.80;;;5.93;;
69953;SDS011;57276;51.364;12.376;2023-05-10T11:28:26;11.40;;;6.60;;
69953;SDS011;57276;51.364;12.376;2023-05-10T11:34:31;10.90;;;6.23;;
69953;SDS011;57276;51.364;12.376;2023-05-10T11:40:35;10.43;;;6.47;;
69953;SDS011;57276;51.364;12.376;2023-05-10T11:46:37;10.55;;;6.40;;
69953;SDS011;57276;51.364;12.376;2023-05-10T11:52:40;11.03;;;6.57;;
69953;SDS011;57276;51.364;12.376;2023-05-10T11:58:42;11.60;;;7.45;;
69953;SDS011;57276;51.364;12.376;2023-05-10T12:04:43;11.90;;;6.93;;
69953;SDS011;57276;51.364;12.376;2023-05-10T12:10:45;10.98;;;7.13;;
69953;SDS011;57276;51.364;12.376;2023-05-10T12:16:47;11.38;;;7.10;;
69953;SDS011;57276;51.364;12.376;2023-05-10T12:22:49;11.87;;;7.07;;
69953;SDS011;57276;51.364;12.376;2023-05-10T12:28:52;11.20;;;7.30;;
69953;SDS011;57276;51.364;12.376;2023-05-10T12:34:54;12.07;;;7.93;;
69953;SDS011;57276;51.364;12.376;2023-05-10T12:40:59;11.57;;;6.78;;
69953;SDS011;57276;51.364;12.376;2023-05-10T12:47:02;11.23;;;6.50;;
69953;SDS011;57276;51.364;12.376;2023-05-10T12:53:04;11.27;;;6.30;;
69953;SDS011;57276;51.364;12.376;2023-05-10T12:59:05;9.60;;;6.50;;
69953;SDS011;57276;51.364;12.376;2023-05-10T13:05:07;11.03;;;6.63;;
69953;SDS011;57276;51.364;12.376;2023-05-10T13:11:09;10.25;;;6.40;;
69953;SDS011;57276;51.364;12.376;2023-05-10T13:17:11;9.65;;;6.55;;
69953;SDS011;57276;51.364;12.376;2023-05-10T13:23:12;8.63;;;6.00;;
69953;SDS011;57276;51.364;12.376;2023-05-10T13:29:14;8.90;;;5.60;;
69953;SDS011;57276;51.364;12.376;2023-05-10T13:35:17;8.40;;;5.30;;
69953;SDS011;57276;51.364;12.376;2023-05-10T13:41:19;9.60;;;5.30;;
69953;SDS011;57276;51.364;12.376;2023-05-10T13:47:20;8.27;;;5.40;;
69953;SDS011;57276;51.364;12.376;2023-05-10T13:53:24;6.93;;;4.73;;
69953;SDS011;57276;51.364;12.376;2023-05-10T13:59:26;7.30;;;4.88;;
69953;SDS011;57276;51.364;12.376;2023-05-10T14:05:27;7.50;;;4.80;;
69953;SDS011;57276;51.364;12.376;2023-05-10T14:11:29;7.97;;;5.05;;
69953;SDS011;57276;51.364;12.376;2023-05-10T14:17:32;8.38;;;5.35;;
69953;SDS011;57276;51.364;12.376;2023-05-10T14:23:34;8.10;;;5.17;;
69953;SDS011;57276;51.364;12.376;2023-05-10T14:29:37;6.80;;;4.25;;
69953;SDS011;57276;51.364;12.376;2023-05-10T14:35:39;5.07;;;2.60;;
69953;SDS011;57276;51.364;12.376;2023-05-10T14:41:40;4.30;;;2.38;;
69953;SDS011;57276;51.364;12.376;2023-05-10T14:47:45;4.40;;;2.35;;
69953;SDS011;57276;51.364;12.376;2023-05-10T14:53:47;4.87;;;2.80;;
69953;SDS011;57276;51.364;12.376;2023-05-10T14:59:49;5.30;;;2.80;;
69953;SDS011;57276;51.364;12.376;2023-05-10T15:05:51;7.07;;;3.83;;
69953;SDS011;57276;51.364;12.376;2023-05-10T15:11:53;7.35;;;3.60;;
69953;SDS011;57276;51.364;12.376;2023-05-10T15:17:55;6.70;;;3.72;;
69953;SDS011;57276;51.364;12.376;2023-05-10T15:23:57;4.63;;;2.10;;
69953;SDS011;57276;51.364;12.376;2023-05-10T15:29:58;3.28;;;1.40;;
69953;SDS011;57276;51.364;12.376;2023-05-10T15:36:00;3.67;;;1.30;;
69953;SDS011;57276;51.364;12.376;2023-05-10T15:42:02;3.55;;;1.40;;
69953;SDS011;57276;51.364;12.376;2023-05-10T15:48:05;4.20;;;1.40;;
69953;SDS011;57276;51.364;12.376;2023-05-10T15:54:06;4.33;;;1.40;;
69953;SDS011;57276;51.364;12.376;2023-05-10T16:00:09;3.58;;;1.30;;
69953;SDS011;57276;51.364;12.376;2023-05-10T16:06:13;3.20;;;1.30;;
69953;SDS011;57276;51.364;12.376;2023-05-10T16:12:15;3.33;;;1.63;;
69953;SDS011;57276;51.364;12.376;2023-05-10T16:18:17;3.67;;;1.50;;
69953;SDS011;57276;51.364;12.376;2023-05-10T16:24:18;4.00;;;1.77;;
69953;SDS011;57276;51.364;12.376;2023-05-10T16:30:20;4.50;;;1.88;;
69953;SDS011;57276;51.364;12.376;2023-05-10T16:36:25;3.47;;;1.70;;
69953;SDS011;57276;51.364;12.376;2023-05-10T16:42:27;3.38;;;1.40;;
69953;SDS011;57276;51.364;12.376;2023-05-10T16:48:30;4.07;;;1.48;;
69953;SDS011;57276;51.364;12.376;2023-05-10T16:54:32;3.33;;;1.60;;
69953;SDS011;57276;51.364;12.376;2023-05-10T17:00:33;3.42;;;1.63;;
69953;SDS011;57276;51.364;12.376;2023-05-10T17:06:36;3.40;;;1.77;;
69953;SDS011;57276;51.364;12.376;2023-05-10T17:12:37;3.83;;;2.13;;
69953;SDS011;57276;51.364;12.376;2023-05-10T17:18:39;4.93;;;2.10;;
69953;SDS011;57276;51.364;12.376;2023-05-10T17:24:41;4.10;;;2.20;;
69953;SDS011;57276;51.364;12.376;2023-05-10T17:30:43;4.70;;;2.53;;
69953;SDS011;57276;51.364;12.376;2023-05-10T17:36:44;4.23;;;2.30;;
69953;SDS011;57276;51.364;12.376;2023-05-10T17:42:47;4.35;;;2.47;;
69953;SDS011;57276;51.364;12.376;2023-05-10T17:48:48;6.50;;;2.88;;
69953;SDS011;57276;51.364;12.376;2023-05-10T17:54:51;4.90;;;2.90;;
69953;SDS011;57276;51.364;12.376;2023-05-10T18:00:53;4.95;;;2.80;;
69953;SDS011;57276;51.364;12.376;2023-05-10T18:06:55;5.63;;;3.00;;
69953;SDS011;57276;51.364;12.376;2023-05-10T18:13:02;5.47;;;3.20;;
69953;SDS011;57276;51.364;12.376;2023-05-10T18:19:09;8.18;;;3.38;;
69953;SDS011;57276;51.364;12.376;2023-05-10T18:25:11;5.23;;;3.20;;
69953;SDS011;57276;51.364;12.376;2023-05-10T18:31:13;6.30;;;3.08;;
69953;SDS011;57276;51.364;12.376;2023-05-10T18:37:15;5.57;;;3.20;;
69953;SDS011;57276;51.364;12.376;2023-05-10T18:43:17;5.82;;;3.10;;
69953;SDS011;57276;51.364;12.376;2023-05-10T18:49:18;7.22;;;2.97;;
69953;SDS011;57276;51.364;12.376;2023-05-10T18:55:20;6.50;;;3.80;;
69953;SDS011;57276;51.364;12.376;2023-05-10T19:01:22;7.10;;;3.50;;
69953;SDS011;57276;51.364;12.376;2023-05-10T19:07:24;5.63;;;3.33;;
69953;SDS011;57276;51.364;12.376;2023-05-10T19:13:27;5.28;;;2.90;;
69953;SDS011;57276;51.364;12.376;2023-05-10T19:19:29;6.03;;;3.28;;
69953;SDS011;57276;51.364;12.376;2023-05-10T19:25:35;5.77;;;3.33;;
69953;SDS011;57276;51.364;12.376;2023-05-10T19:31:36;6.32;;;3.70;;
69953;SDS011;57276;51.364;12.376;2023-05-10T19:37:40;7.27;;;4.00;;
69953;SDS011;57276;51.364;12.376;2023-05-10T19:43:46;7.93;;;4.32;;
69953;SDS011;57276;51.364;12.376;2023-05-10T19:49:50;6.97;;;3.95;;
69953;SDS011;57276;51.364;12.376;2023-05-10T19:55:52;7.83;;;5.17;;
69953;SDS011;57276;51.364;12.376;2023-05-10T20:01:55;8.25;;;4.50;;
69953;SDS011;57276;51.364;12.376;2023-05-10T20:07:56;7.10;;;4.20;;
69953;SDS011;57276;51.364;12.376;2023-05-10T20:13:58;7.55;;;4.22;;
69953;SDS011;57276;51.364;12.376;2023-05-10T20:20:00;7.82;;;4.55;;
69953;SDS011;57276;51.364;12.376;2023-05-10T20:26:03;7.37;;;4.50;;
69953;SDS011;57276;51.364;12.376;2023-05-10T20:32:05;7.85;;;4.85;;
69953;SDS011;57276;51.364;12.376;2023-05-10T20:38:06;7.37;;;4.60;;
69953;SDS011;57276;51.364;12.376;2023-05-10T20:44:10;7.85;;;4.38;;
69953;SDS011;57276;51.364;12.376;2023-05-10T20:50:12;8.68;;;4.75;;
69953;SDS011;57276;51.364;12.376;2023-05-10T20:56:14;8.40;;;5.13;;
69953;SDS011;57276;51.364;12.376;2023-05-10T21:02:15;8.25;;;4.78;;
69953;SDS011;57276;51.364;12.376;2023-05-10T21:08:17;7.63;;;4.93;;
69953;SDS011;57276;51.364;12.376;2023-05-10T21:14:19;8.15;;;5.22;;
69953;SDS011;57276;51.364;12.376;2023-05-10T21:20:20;10.18;;;5.22;;
69953;SDS011;57276;51.364;12.376;2023-05-10T21:26:23;7.63;;;4.67;;
69953;SDS011;57276;51.364;12.376;2023-05-10T21:32:25;8.52;;;4.90;;
69953;SDS011;57276;51.364;12.376;2023-05-10T21:38:27;8.37;;;4.83;;
69953;SDS011;57276;51.364;12.376;2023-05-10T21:44:29;9.45;;;4.95;;
69953;SDS011;57276;51.364;12.376;2023-05-10T21:50:33;8.52;;;4.80;;
69953;SDS011;57276;51.364;12.376;2023-05-10T21:56:35;8.30;;;4.87;;
69953;SDS011;57276;51.364;12.376;2023-05-10T22:02:36;9.20;;;5.28;;
69953;SDS011;57276;51.364;12.376;2023-05-10T22:08:38;9.67;;;5.27;;
69953;SDS011;57276;51.364;12.376;2023-05-10T22:14:39;8.70;;;5.50;;
69953;SDS011;57276;51.364;12.376;2023-05-10T22:20:43;10.13;;;5.50;;
69953;SDS011;57276;51.364;12.376;2023-05-10T22:26:44;8.70;;;5.20;;
69953;SDS011;57276;51.364;12.376;2023-05-10T22:32:46;10.43;;;5.80;;
69953;SDS011;57276;51.364;12.376;2023-05-10T22:38:48;9.97;;;5.77;;
69953;SDS011;57276;51.364;12.376;2023-05-10T22:44:49;9.00;;;4.78;;
69953;SDS011;57276;51.364;12.376;2023-05-10T22:50:51;7.75;;;4.70;;
69953;SDS011;57276;51.364;12.376;2023-05-10T22:56:53;9.23;;;5.53;;
69953;SDS011;57276;51.364;12.376;2023-05-10T23:02:57;8.80;;;5.40;;
69953;SDS011;57276;51.364;12.376;2023-05-10T23:08:59;10.30;;;5.20;;
69953;SDS011;57276;51.364;12.376;2023-05-10T23:15:01;8.63;;;5.30;;
69953;SDS011;57276;51.364;12.376;2023-05-10T23:21:03;10.40;;;5.25;;
69953;SDS011;57276;51.364;12.376;2023-05-10T23:27:04;10.07;;;5.20;;
69953;SDS011;57276;51.364;12.376;2023-05-10T23:33:06;10.18;;;5.65;;
69953;SDS011;57276;51.364;12.376;2023-05-10T23:39:10;9.40;;;5.63;;
69953;SDS011;57276;51.364;12.376;2023-05-10T23:45:12;9.40;;;5.68;;
69953;SDS011;57276;51.364;12.376;2023-05-10T23:51:13;9.68;;;5.45;;
69953;SDS011;57276;51.364;12.376;2023-05-10T23:57:15;9.30;;;5.57;;
